sensor_id;sensor_type;location;lat;lon;timestamp;temperature;humidity
33011;DHT22;19370;48.562;9.196;2024-01-25T01:26:54;8.10;99.90
33011;DHT22;19370;48.562;9.196;2024-01-25T01:29:21;8.10;99.90
33011;DHT22;19370;48.562;9.196;2024-01-25T01:31:46;8.10;99.90
33011;DHT22;19370;48.562;9.196;2024-01-25T01:34:12;8.10;99.90
33011;DHT22;19370;48.562;9.196;2024-01-25T01:36:40;8.10;99.90
33011;DHT22;19370;48.562;9.196;2024-01-25T01:39:13;8.10;99.90
33011;DHT22;19370;48.562;9.196;2024-01-25T01:41:40;8.10;99.90
33011;DHT22;19370;48.562;9.196;2024-01-25T01:44:06;8.00;99.90
33011;DHT22;19370;48.562;9.196;2024-01-25T01:46:36;7.90;99.90
33011;DHT22;19370;48.562;9.196;2024-01-25T01:49:13;7.90;99.90
33011;DHT22;19370;48.562;9.196;2024-01-25T01:51:41;7.90;99.90
33011;DHT22;19370;48.562;9.196;2024-01-25T01:54:11;7.90;99.90
33011;DHT22;19370;48.562;9.196;2024-01-25T01:56:37;7.80;99.90
33011;DHT22;19370;48.562;9.196;2024-01-25T01:59:09;7.90;99.90
33011;DHT22;19370;48.562;9.196;2024-01-25T02:01:35;7.80;99.90
33011;DHT22;19370;48.562;9.196;2024-01-25T02:04:01;7.80;99.90
33011;DHT22;19370;48.562;9.196;2024-01-25T02:06:26;7.90;99.90
33011;DHT22;19370;48.562;9.196;2024-01-25T02:08:52;7.90;99.90
33011;DHT22;19370;48.562;9.196;2024-01-25T02:11:19;7.90;99.90
33011;DHT22;19370;48.562;9.196;2024-01-25T02:13:45;8.00;99.90
33011;DHT22;19370;48.562;9.196;2024-01-25T02:16:12;7.90;99.90
33011;DHT22;19370;48.562;9.196;2024-01-25T02:18:41;8.00;99.90
33011;DHT22;19370;48.562;9.196;2024-01-25T02:21:06;8.00;99.90
33011;DHT22;19370;48.562;9.196;2024-01-25T02:23:33;8.00;99.90
33011;DHT22;19370;48.562;9.196;2024-01-25T02:25:58;8.00;99.90
33011;DHT22;19370;48.562;9.196;2024-01-25T02:28:24;8.00;99.90
33011;DHT22;19370;48.562;9.196;2024-01-25T02:30:50;8.10;99.90
33011;DHT22;19370;48.562;9.196;2024-01-25T02:33:15;8.00;99.90
33011;DHT22;19370;48.562;9.196;2024-01-25T02:35:41;8.00;99.90
33011;DHT22;19370;48.562;9.196;2024-01-25T02:38:07;8.00;99.90
33011;DHT22;19370;48.562;9.196;2024-01-25T10:23:54;10.60;99.90
33011;DHT22;19370;48.562;9.196;2024-01-25T10:27:29;10.30;99.90
33011;DHT22;19370;48.562;9.196;2024-01-25T10:30:41;10.00;99.90
33011;DHT22;19370;48.562;9.196;2024-01-25T10:33:14;10.00;99.90
33011;DHT22;19370;48.562;9.196;2024-01-25T10:39:21;10.20;99.90
33011;DHT22;19370;48.562;9.196;2024-01-25T10:41:54;10.50;99.90
33011;DHT22;19370;48.562;9.196;2024-01-25T10:44:41;10.70;99.90
33011;DHT22;19370;48.562;9.196;2024-01-25T10:47:08;10.50;99.90
33011;DHT22;19370;48.562;9.196;2024-01-25T10:49:37;10.70;99.90
33011;DHT22;19370;48.562;9.196;2024-01-25T10:52:20;10.70;99.90
33011;DHT22;19370;48.562;9.196;2024-01-25T10:54:55;11.30;99.90
33011;DHT22;19370;48.562;9.196;2024-01-25T15:33:32;10.00;99.90
33011;DHT22;19370;48.562;9.196;2024-01-25T15:36:33;9.90;99.90
33011;DHT22;19370;48.562;9.196;2024-01-25T15:39:33;9.80;99.90
33011;DHT22;19370;48.562;9.196;2024-01-25T15:41:58;9.80;99.90
33011;DHT22;19370;48.562;9.196;2024-01-25T15:44:29;9.80;99.90
33011;DHT22;19370;48.562;9.196;2024-01-25T15:46:55;9.70;99.90
33011;DHT22;19370;48.562;9.196;2024-01-25T15:49:24;9.80;99.90
33011;DHT22;19370;48.562;9.196;2024-01-25T15:51:51;9.80;99.90
33011;DHT22;19370;48.562;9.196;2024-01-25T15:54:22;9.80;99.90
33011;DHT22;19370;48.562;9.196;2024-01-25T15:56:54;9.80;99.90
33011;DHT22;19370;48.562;9.196;2024-01-25T15:59:52;9.80;99.90
33011;DHT22;19370;48.562;9.196;2024-01-25T16:02:23;9.90;99.90
33011;DHT22;19370;48.562;9.196;2024-01-25T16:05:05;9.80;99.90
33011;DHT22;19370;48.562;9.196;2024-01-25T16:07:39;9.80;99.90
33011;DHT22;19370;48.562;9.196;2024-01-25T16:10:05;9.70;99.90
33011;DHT22;19370;48.562;9.196;2024-01-25T16:12:31;9.70;99.90
33011;DHT22;19370;48.562;9.196;2024-01-25T16:15:15;9.70;99.90
33011;DHT22;19370;48.562;9.196;2024-01-25T16:18:03;9.60;99.90
33011;DHT22;19370;48.562;9.196;2024-01-25T16:20:30;9.70;99.90
33011;DHT22;19370;48.562;9.196;2024-01-25T16:22:58;9.60;99.90
33011;DHT22;19370;48.562;9.196;2024-01-25T16:25:29;9.60;99.90
33011;DHT22;19370;48.562;9.196;2024-01-25T16:27:56;9.50;99.90
33011;DHT22;19370;48.562;9.196;2024-01-25T16:30:27;9.50;99.90
33011;DHT22;19370;48.562;9.196;2024-01-25T16:32:52;9.50;99.90
33011;DHT22;19370;48.562;9.196;2024-01-25T16:35:18;9.50;99.90
33011;DHT22;19370;48.562;9.196;2024-01-25T16:37:54;9.50;99.90
33011;DHT22;19370;48.562;9.196;2024-01-25T16:46:51;9.40;99.90
33011;DHT22;19370;48.562;9.196;2024-01-25T16:49:34;9.40;99.90
